Time;durP1;ratioP1;P1;durP2;ratioP2;P2;SDS_P1;SDS_P2;PMS_P1;PMS_P2;Temp;Humidity;BMP_temperature;BMP_pressure;BME280_temperature;BME280_humidity;BME280_pressure;Samples;Min_cycle;Max_cycle;Signal;HPM_P1;HPM_P2
2021/12/30 00:02:07;;;;;;;;;;;23.00;52.40;;;;;;5055155;28;932;-37
2021/12/30 00:04:34;;;;;;;;;;;23.00;52.40;;;;;;5055291;28;975;-39
2021/12/30 00:07:01;;;;;;;;;;;23.00;52.30;;;;;;5054127;28;1964;-39
2021/12/30 00:09:28;;;;;;;;;;;23.00;52.20;;;;;;5055241;28;988;-39
2021/12/30 00:11:56;;;;;;;;;;;23.00;52.30;;;;;;5054865;28;900;-39
2021/12/30 00:14:23;;;;;;;;;;;23.00;52.40;;;;;;5053353;28;953;-42
2021/12/30 00:16:50;;;;;;;;;;;23.00;52.40;;;;;;5055024;28;997;-38
2021/12/30 00:19:17;;;;;;;;;;;23.00;52.20;;;;;;5055042;28;952;-39
2021/12/30 00:21:44;;;;;;;;;;;23.10;52.20;;;;;;5054998;28;1011;-39
2021/12/30 00:24:11;;;;;;;;;;;23.00;52.30;;;;;;5054775;28;1204;-37
2021/12/30 00:26:38;;;;;;;;;;;23.00;52.20;;;;;;5054844;28;1898;-38
2021/12/30 00:29:06;;;;;;;;;;;23.00;52.20;;;;;;5055318;28;928;-39
2021/12/30 00:31:33;;;;;;;;;;;23.00;52.30;;;;;;5054122;28;1001;-37
2021/12/30 00:34:00;;;;;;;;;;;23.00;52.20;;;;;;5054987;28;992;-37
2021/12/30 00:36:26;;;;;;;;;;;23.00;52.20;;;;;;5054532;28;963;-38
2021/12/30 00:38:53;;;;;;;;;;;23.00;52.30;;;;;;5054667;28;888;-39
2021/12/30 00:41:20;;;;;;;;;;;23.00;52.30;;;;;;5054705;28;991;-40
2021/12/30 00:43:47;;;;;;;;;;;23.00;52.30;;;;;;5055246;28;1006;-41
2021/12/30 00:46:16;;;;;;;;;;;23.00;52.30;;;;;;5054545;28;1973;-38
2021/12/30 00:48:43;;;;;;;;;;;23.00;52.20;;;;;;5054588;28;1029;-41
2021/12/30 00:51:09;;;;;;;;;;;23.00;52.20;;;;;;5054906;28;845;-40
2021/12/30 00:53:37;;;;;;;;;;;23.00;52.20;;;;;;5054693;28;1093;-39
2021/12/30 00:56:03;;;;;;;;;;;23.00;52.30;;;;;;5055192;28;987;-38
2021/12/30 00:58:30;;;;;;;;;;;23.00;52.20;;;;;;5054391;28;1461;-39
2021/12/30 01:00:59;;;;;;;;;;;23.00;52.30;;;;;;5054486;28;1021;-37
2021/12/30 01:03:28;;;;;;;;;;;23.00;52.20;;;;;;5054801;28;993;-39
2021/12/30 01:05:54;;;;;;;;;;;23.00;52.20;;;;;;5055214;28;1902;-40
2021/12/30 01:08:21;;;;;;;;;;;23.00;52.10;;;;;;5055208;28;1008;-37
2021/12/30 01:10:48;;;;;;;;;;;23.00;52.20;;;;;;5054588;28;911;-39
2021/12/30 01:13:20;;;;;;;;;;;23.00;52.20;;;;;;5054836;28;932;-38
2021/12/30 01:15:56;;;;;;;;;;;23.00;52.20;;;;;;5053167;28;993;-38
2021/12/30 01:18:29;;;;;;;;;;;23.00;52.20;;;;;;5056977;27;1045;-37
2021/12/30 01:20:58;;;;;;;;;;;23.00;52.20;;;;;;5058047;28;935;-41
2021/12/30 01:23:25;;;;;;;;;;;23.00;52.20;;;;;;5058521;28;916;-40
2021/12/30 01:25:52;;;;;;;;;;;23.00;52.30;;;;;;5058192;28;1898;-40
2021/12/30 01:28:19;;;;;;;;;;;23.00;52.20;;;;;;5057692;28;1005;-38
2021/12/30 01:30:46;;;;;;;;;;;23.00;52.20;;;;;;5057688;28;924;-38
2021/12/30 01:33:12;;;;;;;;;;;23.00;52.20;;;;;;5058146;28;1047;-39
2021/12/30 01:35:39;;;;;;;;;;;23.00;52.20;;;;;;5057708;28;944;-40
2021/12/30 01:38:11;;;;;;;;;;;23.00;52.10;;;;;;5058214;28;999;-38
2021/12/30 01:40:39;;;;;;;;;;;23.00;52.10;;;;;;5057825;27;899;-41
2021/12/30 01:43:07;;;;;;;;;;;23.00;52.10;;;;;;5058096;27;943;-42
2021/12/30 01:45:33;;;;;;;;;;;23.00;52.20;;;;;;5057652;27;1985;-37
2021/12/30 01:48:01;;;;;;;;;;;23.00;52.20;;;;;;5056636;28;941;-38
2021/12/30 01:50:27;;;;;;;;;;;23.00;52.20;;;;;;5057348;28;988;-38
2021/12/30 01:52:54;;;;;;;;;;;23.00;52.10;;;;;;5057263;28;949;-38
2021/12/30 01:55:23;;;;;;;;;;;23.00;52.20;;;;;;5057512;28;980;-38
2021/12/30 01:57:50;;;;;;;;;;;23.00;52.20;;;;;;5057356;28;1028;-37
2021/12/30 02:00:18;;;;;;;;;;;23.00;52.20;;;;;;5057607;28;1141;-39
2021/12/30 02:02:45;;;;;;;;;;;23.00;52.20;;;;;;5057325;28;936;-38
2021/12/30 02:05:12;;;;;;;;;;;23.00;52.00;;;;;;5057178;28;925;-38
2021/12/30 02:07:39;;;;;;;;;;;23.00;52.10;;;;;;5056763;28;1901;-38
2021/12/30 02:10:06;;;;;;;;;;;23.00;52.10;;;;;;5057362;28;1000;-40
2021/12/30 02:12:35;;;;;;;;;;;23.00;52.10;;;;;;5057641;28;940;-40
2021/12/30 02:15:03;;;;;;;;;;;23.00;52.10;;;;;;5056239;28;931;-40
2021/12/30 02:17:30;;;;;;;;;;;23.00;52.20;;;;;;5057706;28;888;-37
2021/12/30 02:19:59;;;;;;;;;;;23.00;52.10;;;;;;5057261;28;920;-38
2021/12/30 02:22:26;;;;;;;;;;;23.00;52.10;;;;;;5057436;28;991;-38
2021/12/30 02:24:52;;;;;;;;;;;23.00;52.10;;;;;;5057864;28;1032;-41
2021/12/30 02:27:19;;;;;;;;;;;23.00;52.20;;;;;;5057140;28;1995;-40
2021/12/30 02:29:46;;;;;;;;;;;23.00;52.20;;;;;;5056194;28;992;-39
2021/12/30 02:32:13;;;;;;;;;;;23.00;52.10;;;;;;5056609;28;1004;-38
2021/12/30 02:34:39;;;;;;;;;;;23.00;52.10;;;;;;5056726;28;1001;-41
2021/12/30 02:37:09;;;;;;;;;;;23.00;52.10;;;;;;5056999;28;924;-41
2021/12/30 02:39:36;;;;;;;;;;;23.00;52.10;;;;;;5056985;28;1020;-40
2021/12/30 02:42:03;;;;;;;;;;;23.00;52.10;;;;;;5056850;28;996;-42
2021/12/30 02:44:30;;;;;;;;;;;23.00;52.10;;;;;;5056619;28;976;-40
2021/12/30 02:46:57;;;;;;;;;;;23.00;52.10;;;;;;5057159;28;1902;-37
2021/12/30 02:49:23;;;;;;;;;;;23.00;52.10;;;;;;5057465;27;1008;-39
2021/12/30 02:51:50;;;;;;;;;;;23.00;52.20;;;;;;5057012;28;992;-38
2021/12/30 02:54:18;;;;;;;;;;;23.00;52.10;;;;;;5056709;28;1004;-38
2021/12/30 02:56:47;;;;;;;;;;;23.00;52.20;;;;;;5056761;28;1024;-37
2021/12/30 02:59:14;;;;;;;;;;;23.00;52.20;;;;;;5056854;28;1069;-43
2021/12/30 03:01:41;;;;;;;;;;;23.00;52.20;;;;;;5056382;28;991;-37
2021/12/30 03:04:08;;;;;;;;;;;23.00;52.20;;;;;;5056923;28;1014;-39
2021/12/30 03:06:35;;;;;;;;;;;23.00;52.20;;;;;;5056232;28;1922;-38
2021/12/30 03:09:02;;;;;;;;;;;23.00;52.20;;;;;;5056533;28;972;-39
2021/12/30 03:11:30;;;;;;;;;;;23.00;52.30;;;;;;5056843;28;1043;-39
2021/12/30 03:13:57;;;;;;;;;;;23.00;52.20;;;;;;5056316;28;1008;-38
2021/12/30 03:16:25;;;;;;;;;;;23.00;52.20;;;;;;5056758;28;948;-40
2021/12/30 03:18:52;;;;;;;;;;;23.00;52.30;;;;;;5055914;28;909;-37
2021/12/30 03:21:20;;;;;;;;;;;22.90;52.40;;;;;;5056703;27;1006;-40
2021/12/30 03:23:47;;;;;;;;;;;22.90;52.40;;;;;;5056259;28;1012;-39
2021/12/30 03:26:14;;;;;;;;;;;22.90;52.40;;;;;;5056316;28;1976;-37
2021/12/30 03:28:43;;;;;;;;;;;23.00;52.30;;;;;;5056709;28;1019;-40
2021/12/30 03:31:10;;;;;;;;;;;23.00;52.30;;;;;;5056415;28;995;-38
2021/12/30 03:33:37;;;;;;;;;;;23.00;52.30;;;;;;5056144;28;1189;-38
2021/12/30 03:36:05;;;;;;;;;;;23.00;52.20;;;;;;5056319;28;1007;-42
2021/12/30 03:38:34;;;;;;;;;;;23.00;52.20;;;;;;5055795;28;991;-37
2021/12/30 03:41:05;;;;;;;;;;;23.00;52.20;;;;;;5055678;28;1007;-38
2021/12/30 03:43:32;;;;;;;;;;;23.00;52.20;;;;;;5055695;28;949;-38
2021/12/30 03:46:00;;;;;;;;;;;23.00;52.40;;;;;;5055508;28;1902;-38
2021/12/30 03:48:33;;;;;;;;;;;23.00;52.40;;;;;;5055865;28;1015;-40
2021/12/30 03:51:04;;;;;;;;;;;23.00;52.40;;;;;;5055579;28;952;-38
2021/12/30 03:53:31;;;;;;;;;;;23.00;52.40;;;;;;5056071;28;1976;-38
2021/12/30 03:55:58;;;;;;;;;;;23.00;52.30;;;;;;5056034;28;893;-38
2021/12/30 03:58:25;;;;;;;;;;;23.00;52.30;;;;;;5056054;28;1125;-37
2021/12/30 04:00:51;;;;;;;;;;;23.00;52.40;;;;;;5055459;28;960;-40
2021/12/30 04:03:19;;;;;;;;;;;22.90;52.30;;;;;;5056017;28;996;-39
2021/12/30 04:05:46;;;;;;;;;;;23.00;52.50;;;;;;5055363;28;940;-38
2021/12/30 04:08:13;;;;;;;;;;;22.90;52.50;;;;;;5055719;28;1922;-40
2021/12/30 04:10:39;;;;;;;;;;;22.90;52.50;;;;;;5055655;28;971;-37
2021/12/30 04:13:06;;;;;;;;;;;22.90;52.50;;;;;;5055512;28;1024;-42
2021/12/30 04:15:33;;;;;;;;;;;22.90;52.50;;;;;;5055744;28;996;-38
2021/12/30 04:18:00;;;;;;;;;;;22.90;52.50;;;;;;5056002;28;967;-37
2021/12/30 04:20:28;;;;;;;;;;;22.90;52.50;;;;;;5055792;28;936;-40
2021/12/30 04:22:54;;;;;;;;;;;22.90;52.50;;;;;;5055567;28;989;-38
2021/12/30 04:25:21;;;;;;;;;;;22.90;52.50;;;;;;5055507;28;984;-37
2021/12/30 04:27:48;;;;;;;;;;;22.90;52.50;;;;;;5055480;28;1906;-39
2021/12/30 04:30:16;;;;;;;;;;;22.90;52.40;;;;;;5055361;28;981;-39
2021/12/30 04:32:42;;;;;;;;;;;22.90;52.90;;;;;;5055200;28;945;-38
2021/12/30 04:35:10;;;;;;;;;;;22.90;52.40;;;;;;5055424;28;1012;-39
2021/12/30 04:37:38;;;;;;;;;;;22.90;52.50;;;;;;5055132;28;948;-37
2021/12/30 04:40:06;;;;;;;;;;;22.90;52.60;;;;;;5055930;28;1118;-37
2021/12/30 04:42:32;;;;;;;;;;;22.90;52.60;;;;;;5055462;28;1016;-37
2021/12/30 04:44:59;;;;;;;;;;;22.90;52.60;;;;;;5055152;28;1074;-39
2021/12/30 04:47:26;;;;;;;;;;;22.90;52.70;;;;;;5055331;28;1987;-42
2021/12/30 04:49:55;;;;;;;;;;;22.90;52.80;;;;;;5054756;28;968;-41
2021/12/30 04:52:22;;;;;;;;;;;22.90;52.80;;;;;;5056310;28;928;-41
2021/12/30 04:54:50;;;;;;;;;;;22.90;53.90;;;;;;5058575;27;1015;-37
2021/12/30 04:57:17;;;;;;;;;;;22.90;52.80;;;;;;5058561;28;1050;-37
2021/12/30 04:59:44;;;;;;;;;;;22.90;52.90;;;;;;5058652;28;1177;-37
2021/12/30 05:02:12;;;;;;;;;;;23.00;52.90;;;;;;5058566;28;1039;-39
2021/12/30 05:04:39;;;;;;;;;;;23.00;52.90;;;;;;5058618;27;951;-38
2021/12/30 05:07:05;;;;;;;;;;;23.00;52.90;;;;;;5058297;28;1897;-39
2021/12/30 05:09:32;;;;;;;;;;;23.00;52.80;;;;;;5058397;28;981;-40
2021/12/30 05:12:00;;;;;;;;;;;23.00;52.90;;;;;;5058558;28;1010;-37
2021/12/30 05:14:27;;;;;;;;;;;23.00;52.80;;;;;;5058243;28;1031;-39
2021/12/30 05:16:55;;;;;;;;;;;23.10;52.90;;;;;;5058249;28;980;-38
2021/12/30 05:19:22;;;;;;;;;;;23.10;52.90;;;;;;5058313;27;1008;-38
2021/12/30 05:21:49;;;;;;;;;;;23.10;52.90;;;;;;5057630;28;1009;-38
2021/12/30 05:24:16;;;;;;;;;;;23.10;53.00;;;;;;5058156;28;1076;-42
2021/12/30 05:26:43;;;;;;;;;;;23.10;52.90;;;;;;5058179;28;1903;-41
2021/12/30 05:29:11;;;;;;;;;;;23.10;53.00;;;;;;5057543;28;1049;-41
2021/12/30 05:31:38;;;;;;;;;;;23.10;53.00;;;;;;5057898;28;968;-39
2021/12/30 05:34:05;;;;;;;;;;;23.10;54.10;;;;;;5058102;28;1102;-41
2021/12/30 05:36:32;;;;;;;;;;;23.10;53.00;;;;;;5058116;28;939;-40
2021/12/30 05:38:59;;;;;;;;;;;23.10;53.00;;;;;;5057756;28;1017;-39
2021/12/30 05:41:27;;;;;;;;;;;23.10;53.00;;;;;;5057944;28;941;-40
2021/12/30 05:43:54;;;;;;;;;;;23.10;53.00;;;;;;5057808;28;984;-41
2021/12/30 05:46:22;;;;;;;;;;;23.10;53.00;;;;;;5057986;27;998;-38
2021/12/30 05:48:49;;;;;;;;;;;23.10;53.00;;;;;;5057324;28;1902;-37
2021/12/30 05:51:16;;;;;;;;;;;23.10;53.10;;;;;;5057099;28;940;-42
2021/12/30 05:53:43;;;;;;;;;;;23.10;53.00;;;;;;5056974;28;993;-39
2021/12/30 05:56:09;;;;;;;;;;;23.10;53.10;;;;;;5056784;28;1034;-38
2021/12/30 05:58:36;;;;;;;;;;;23.10;53.10;;;;;;5057192;28;1095;-41
2021/12/30 06:01:03;;;;;;;;;;;23.10;53.10;;;;;;5057072;28;1015;-38
2021/12/30 06:03:31;;;;;;;;;;;23.10;53.20;;;;;;5056618;28;1063;-40
2021/12/30 06:05:58;;;;;;;;;;;23.10;53.10;;;;;;5057330;28;1011;-40
2021/12/30 06:08:24;;;;;;;;;;;23.10;53.10;;;;;;5057105;28;1977;-38
2021/12/30 06:10:51;;;;;;;;;;;23.10;53.10;;;;;;5056929;28;988;-39
2021/12/30 06:13:19;;;;;;;;;;;23.10;53.20;;;;;;5056858;28;1034;-38
2021/12/30 06:15:45;;;;;;;;;;;23.10;53.10;;;;;;5056311;27;971;-37
2021/12/30 06:18:12;;;;;;;;;;;23.20;53.20;;;;;;5056860;28;945;-40
2021/12/30 06:20:40;;;;;;;;;;;23.10;53.10;;;;;;5056603;28;945;-39
2021/12/30 06:23:07;;;;;;;;;;;23.10;53.20;;;;;;5057026;28;1051;-40
2021/12/30 06:25:33;;;;;;;;;;;23.10;53.20;;;;;;5056542;28;1031;-38
2021/12/30 06:28:00;;;;;;;;;;;23.10;53.20;;;;;;5056307;28;1902;-41
2021/12/30 06:30:27;;;;;;;;;;;23.10;53.20;;;;;;5056551;28;989;-41
2021/12/30 06:32:54;;;;;;;;;;;23.10;53.20;;;;;;5056731;28;1020;-41
2021/12/30 06:35:20;;;;;;;;;;;23.10;53.30;;;;;;5056486;28;929;-38
2021/12/30 06:37:48;;;;;;;;;;;23.10;53.30;;;;;;5056281;28;973;-42
2021/12/30 06:40:15;;;;;;;;;;;23.10;53.40;;;;;;5056366;28;1017;-38
2021/12/30 06:42:43;;;;;;;;;;;23.10;53.30;;;;;;5056027;28;995;-41
2021/12/30 06:45:10;;;;;;;;;;;23.10;53.40;;;;;;5055593;28;1126;-37
2021/12/30 06:47:37;;;;;;;;;;;23.10;53.40;;;;;;5055323;28;1897;-38
2021/12/30 06:50:04;;;;;;;;;;;23.10;53.40;;;;;;5055738;28;994;-39
2021/12/30 06:52:31;;;;;;;;;;;23.10;53.70;;;;;;5055955;28;1993;-37
2021/12/30 06:54:59;;;;;;;;;;;23.10;53.40;;;;;;5056644;28;936;-41
2021/12/30 06:57:28;;;;;;;;;;;23.10;53.30;;;;;;5056469;28;956;-41
2021/12/30 06:59:55;;;;;;;;;;;23.10;53.30;;;;;;5056618;28;1090;-40
2021/12/30 07:02:21;;;;;;;;;;;23.10;53.30;;;;;;5056372;28;1014;-40
2021/12/30 07:04:48;;;;;;;;;;;23.10;53.20;;;;;;5056585;28;950;-39
2021/12/30 07:07:15;;;;;;;;;;;23.10;53.30;;;;;;5055813;28;1910;-38
2021/12/30 07:09:42;;;;;;;;;;;23.10;53.20;;;;;;5055830;28;1001;-38
2021/12/30 07:12:10;;;;;;;;;;;23.10;53.20;;;;;;5055965;28;987;-38
2021/12/30 07:14:37;;;;;;;;;;;23.10;53.20;;;;;;5055397;28;990;-38
2021/12/30 07:17:04;;;;;;;;;;;23.10;53.20;;;;;;5055435;28;1020;-38
2021/12/30 07:19:31;;;;;;;;;;;23.10;53.20;;;;;;5055900;28;877;-39
2021/12/30 07:21:57;;;;;;;;;;;23.10;53.20;;;;;;5054910;28;941;-40
2021/12/30 07:24:24;;;;;;;;;;;23.10;53.20;;;;;;5055570;28;975;-37
2021/12/30 07:26:51;;;;;;;;;;;23.10;53.20;;;;;;5055737;28;857;-40
2021/12/30 07:29:20;;;;;;;;;;;23.10;53.20;;;;;;5054809;28;1910;-39
2021/12/30 07:31:46;;;;;;;;;;;23.10;53.20;;;;;;5054932;28;942;-38
2021/12/30 07:34:13;;;;;;;;;;;23.10;53.20;;;;;;5055545;28;992;-41
2021/12/30 07:36:40;;;;;;;;;;;23.10;53.30;;;;;;5055250;28;1011;-40
2021/12/30 07:39:07;;;;;;;;;;;23.10;53.40;;;;;;5055723;28;992;-41
2021/12/30 07:41:34;;;;;;;;;;;23.10;53.40;;;;;;5054907;28;1140;-42
2021/12/30 07:44:00;;;;;;;;;;;23.20;53.40;;;;;;5054578;28;1850;-38
2021/12/30 07:46:28;;;;;;;;;;;23.20;53.30;;;;;;5054316;28;1021;-41
2021/12/30 07:48:55;;;;;;;;;;;23.30;53.10;;;;;;5053969;28;1914;-40
2021/12/30 07:51:22;;;;;;;;;;;23.20;53.20;;;;;;5054948;28;948;-42
2021/12/30 07:53:49;;;;;;;;;;;23.20;53.20;;;;;;5054971;28;984;-34
2021/12/30 07:56:16;;;;;;;;;;;23.20;53.30;;;;;;5054732;28;1000;-34
2021/12/30 07:58:42;;;;;;;;;;;23.20;53.40;;;;;;5054397;28;1241;-35
2021/12/30 08:01:09;;;;;;;;;;;23.20;53.30;;;;;;5054482;28;992;-33
2021/12/30 08:03:37;;;;;;;;;;;23.20;53.30;;;;;;5054978;28;952;-42
2021/12/30 08:06:04;;;;;;;;;;;23.20;53.40;;;;;;5054513;28;838;-33
2021/12/30 08:08:31;;;;;;;;;;;23.20;53.30;;;;;;5054334;28;1914;-34
2021/12/30 08:10:58;;;;;;;;;;;23.20;53.30;;;;;;5054303;28;959;-35
2021/12/30 08:13:25;;;;;;;;;;;23.20;53.30;;;;;;5054834;27;1007;-42
2021/12/30 08:15:51;;;;;;;;;;;23.20;53.30;;;;;;5053860;28;992;-33
2021/12/30 08:18:18;;;;;;;;;;;23.20;53.20;;;;;;5054392;28;1011;-34
2021/12/30 08:20:46;;;;;;;;;;;23.20;53.20;;;;;;5054648;28;936;-34
2021/12/30 08:23:13;;;;;;;;;;;23.20;53.20;;;;;;5054504;28;976;-34
2021/12/30 08:25:40;;;;;;;;;;;23.20;53.10;;;;;;5054175;28;948;-35
2021/12/30 08:28:07;;;;;;;;;;;23.20;53.00;;;;;;5053210;28;1973;-35
2021/12/30 08:30:34;;;;;;;;;;;23.20;53.20;;;;;;5054286;28;1085;-36
2021/12/30 08:33:01;;;;;;;;;;;23.10;53.10;;;;;;5054017;28;957;-35
2021/12/30 08:35:27;;;;;;;;;;;23.10;53.20;;;;;;5054443;28;1014;-35
2021/12/30 08:37:55;;;;;;;;;;;23.10;53.20;;;;;;5054345;28;947;-35
2021/12/30 08:40:22;;;;;;;;;;;23.10;53.20;;;;;;5054272;28;1031;-35
2021/12/30 08:42:49;;;;;;;;;;;23.10;53.20;;;;;;5054426;28;976;-35
2021/12/30 08:45:17;;;;;;;;;;;23.10;53.20;;;;;;5054085;28;1751;-35
2021/12/30 08:47:43;;;;;;;;;;;23.10;53.20;;;;;;5053962;28;1906;-36
2021/12/30 08:50:13;;;;;;;;;;;23.10;54.30;;;;;;5054235;28;1017;-35
2021/12/30 08:52:40;;;;;;;;;;;23.10;53.20;;;;;;5053710;28;1007;-34
2021/12/30 08:55:09;;;;;;;;;;;23.10;53.20;;;;;;5053241;28;1118;-35
2021/12/30 08:57:38;;;;;;;;;;;23.10;53.20;;;;;;5052617;28;1020;-35
2021/12/30 09:00:06;;;;;;;;;;;23.10;53.30;;;;;;5054383;28;1122;-35
2021/12/30 09:02:33;;;;;;;;;;;23.10;53.30;;;;;;5054536;28;939;-35
2021/12/30 09:05:00;;;;;;;;;;;23.10;53.20;;;;;;5053810;28;1018;-35
2021/12/30 09:07:27;;;;;;;;;;;23.10;53.10;;;;;;5053446;28;1018;-42
2021/12/30 09:09:53;;;;;;;;;;;23.10;53.20;;;;;;5053300;28;1906;-35
2021/12/30 09:12:24;;;;;;;;;;;23.10;53.20;;;;;;5062302;28;1529;-35
2021/12/30 09:14:50;;;;;;;;;;;23.10;53.30;;;;;;5072721;27;956;-34
2021/12/30 09:17:17;;;;;;;;;;;23.10;53.30;;;;;;5071945;28;904;-34
2021/12/30 09:19:44;;;;;;;;;;;23.10;53.30;;;;;;5073509;28;912;-36
2021/12/30 09:22:11;;;;;;;;;;;23.10;53.20;;;;;;5072707;28;964;-34
2021/12/30 09:24:37;;;;;;;;;;;23.20;53.10;;;;;;5072919;28;1019;-34
2021/12/30 09:27:04;;;;;;;;;;;23.20;53.00;;;;;;5073545;27;992;-35
2021/12/30 09:29:33;;;;;;;;;;;23.20;53.00;;;;;;5072908;28;1905;-32
2021/12/30 09:31:59;;;;;;;;;;;23.20;53.00;;;;;;5073019;28;940;-32
2021/12/30 09:34:26;;;;;;;;;;;23.20;53.00;;;;;;5073483;28;988;-32
2021/12/30 09:36:53;;;;;;;;;;;23.10;53.00;;;;;;5071797;28;1027;-33
2021/12/30 09:39:20;;;;;;;;;;;23.20;53.00;;;;;;5074954;28;1000;-33
2021/12/30 09:41:47;;;;;;;;;;;23.20;53.00;;;;;;5076108;28;991;-35
2021/12/30 09:44:15;;;;;;;;;;;23.20;53.00;;;;;;5075915;28;944;-35
2021/12/30 09:46:44;;;;;;;;;;;23.20;53.00;;;;;;5075921;28;999;-35
2021/12/30 09:49:13;;;;;;;;;;;23.10;53.00;;;;;;5075455;28;1910;-35
2021/12/30 09:51:40;;;;;;;;;;;23.10;53.10;;;;;;5077472;28;1036;-35
2021/12/30 09:54:08;;;;;;;;;;;23.10;53.10;;;;;;5076789;28;949;-35
2021/12/30 09:56:35;;;;;;;;;;;23.10;53.20;;;;;;5077193;27;966;-34
2021/12/30 09:59:01;;;;;;;;;;;23.10;53.30;;;;;;5076678;27;1010;-38
2021/12/30 10:01:28;;;;;;;;;;;23.10;53.40;;;;;;5076959;28;955;-34
2021/12/30 10:03:57;;;;;;;;;;;23.10;53.40;;;;;;5076684;28;1002;-34
2021/12/30 10:06:25;;;;;;;;;;;23.00;53.40;;;;;;5076212;28;1007;-34
2021/12/30 10:08:55;;;;;;;;;;;23.10;54.60;;;;;;5076731;28;1917;-34
2021/12/30 10:11:22;;;;;;;;;;;23.00;53.30;;;;;;5076238;28;1026;-34
2021/12/30 10:13:50;;;;;;;;;;;23.00;53.50;;;;;;5075756;28;1795;-35
2021/12/30 10:16:17;;;;;;;;;;;23.10;53.40;;;;;;5075243;28;972;-35
2021/12/30 10:18:46;;;;;;;;;;;23.10;53.30;;;;;;5074451;28;1012;-35
2021/12/30 10:21:15;;;;;;;;;;;23.00;53.30;;;;;;5074897;28;1016;-35
2021/12/30 10:23:43;;;;;;;;;;;23.10;53.40;;;;;;5076049;28;976;-35
2021/12/30 10:26:09;;;;;;;;;;;23.10;53.20;;;;;;5076378;28;1015;-35
2021/12/30 10:28:39;;;;;;;;;;;23.10;53.10;;;;;;5075654;28;1980;-35
2021/12/30 10:31:16;;;;;;;;;;;23.10;53.10;;;;;;5076216;28;939;-35
2021/12/30 10:33:47;;;;;;;;;;;23.10;53.20;;;;;;5076293;28;964;-34
2021/12/30 10:36:16;;;;;;;;;;;23.10;53.30;;;;;;5075825;28;892;-36
2021/12/30 10:38:43;;;;;;;;;;;23.10;53.30;;;;;;5075612;28;996;-35
2021/12/30 10:41:10;;;;;;;;;;;23.10;53.40;;;;;;5075120;28;931;-33
2021/12/30 10:43:45;;;;;;;;;;;23.10;53.40;;;;;;5075339;28;1003;-33
2021/12/30 10:46:13;;;;;;;;;;;23.10;53.40;;;;;;5075210;28;975;-37
2021/12/30 10:48:48;;;;;;;;;;;23.10;53.40;;;;;;5074889;28;1901;-38
2021/12/30 10:51:17;;;;;;;;;;;23.10;53.40;;;;;;5073505;28;830;-38
2021/12/30 10:53:44;;;;;;;;;;;23.10;53.20;;;;;;5075475;28;992;-38
2021/12/30 10:56:29;;;;;;;;;;;23.10;53.20;;;;;;5075827;28;1031;-38
2021/12/30 10:58:56;;;;;;;;;;;23.10;53.20;;;;;;5074985;28;999;-42
2021/12/30 11:01:25;;;;;;;;;;;23.10;53.20;;;;;;5074754;28;924;-47
2021/12/30 11:03:56;;;;;;;;;;;23.10;53.20;;;;;;5075430;28;929;-43
2021/12/30 11:06:24;;;;;;;;;;;23.10;53.30;;;;;;5074724;28;1109;-44
2021/12/30 11:09:04;;;;;;;;;;;23.10;53.30;;;;;;5075625;28;1909;-43
2021/12/30 11:11:31;;;;;;;;;;;23.10;53.40;;;;;;5075316;28;1043;-42
2021/12/30 11:13:59;;;;;;;;;;;23.10;53.30;;;;;;5075454;28;976;-40
2021/12/30 11:16:26;;;;;;;;;;;23.10;53.20;;;;;;5075335;28;959;-40
2021/12/30 11:18:52;;;;;;;;;;;23.10;53.20;;;;;;5074039;28;983;-40
2021/12/30 11:21:38;;;;;;;;;;;23.10;53.40;;;;;;5075877;28;1015;-38
2021/12/30 11:24:07;;;;;;;;;;;23.10;53.30;;;;;;5067286;28;994;-38
2021/12/30 11:26:34;;;;;;;;;;;23.10;53.20;;;;;;5075150;27;1032;-38
2021/12/30 11:29:01;;;;;;;;;;;23.10;53.10;;;;;;5074811;28;1906;-37
2021/12/30 11:31:29;;;;;;;;;;;23.10;53.10;;;;;;5074433;28;1046;-38
2021/12/30 11:33:56;;;;;;;;;;;23.10;53.20;;;;;;5067125;28;952;-37
2021/12/30 11:36:22;;;;;;;;;;;23.10;53.20;;;;;;5073990;28;924;-37
2021/12/30 11:38:49;;;;;;;;;;;23.10;53.30;;;;;;5074039;28;968;-38
2021/12/30 11:41:18;;;;;;;;;;;23.10;54.40;;;;;;5074852;28;932;-37
2021/12/30 11:43:46;;;;;;;;;;;23.10;53.30;;;;;;5069316;28;991;-42
2021/12/30 11:46:27;;;;;;;;;;;23.10;53.20;;;;;;5074190;28;1019;-40
2021/12/30 11:48:55;;;;;;;;;;;23.10;53.20;;;;;;5076441;27;1902;-41
2021/12/30 11:51:23;;;;;;;;;;;23.10;53.30;;;;;;5073972;28;1043;-38
2021/12/30 11:53:50;;;;;;;;;;;23.10;53.20;;;;;;5067476;28;916;-37
2021/12/30 11:56:19;;;;;;;;;;;23.10;53.20;;;;;;5073210;28;1007;-40
2021/12/30 11:58:47;;;;;;;;;;;23.10;53.20;;;;;;5074118;28;980;-38
2021/12/30 12:01:33;;;;;;;;;;;23.10;53.30;;;;;;5072853;28;1010;-38
2021/12/30 12:04:02;;;;;;;;;;;23.10;53.20;;;;;;5068434;28;1023;-37
2021/12/30 12:06:31;;;;;;;;;;;23.10;53.20;;;;;;5073560;28;1023;-39
2021/12/30 12:09:00;;;;;;;;;;;23.10;53.00;;;;;;5072914;28;1906;-39
2021/12/30 12:11:32;;;;;;;;;;;23.20;53.00;;;;;;5072737;28;988;-40
2021/12/30 12:14:11;;;;;;;;;;;23.10;53.10;;;;;;5069511;28;932;-39
2021/12/30 12:17:02;;;;;;;;;;;23.20;53.10;;;;;;5073335;28;1806;-40
2021/12/30 12:19:34;;;;;;;;;;;23.20;53.00;;;;;;5071989;27;1566;-38
2021/12/30 12:22:01;;;;;;;;;;;23.20;53.00;;;;;;5073530;28;932;-38
2021/12/30 12:24:31;;;;;;;;;;;23.10;53.10;;;;;;5071924;28;980;-37
2021/12/30 12:27:00;;;;;;;;;;;23.10;53.20;;;;;;5071735;28;976;-37
2021/12/30 12:29:28;;;;;;;;;;;23.20;53.00;;;;;;5072527;28;1978;-40
2021/12/30 12:31:56;;;;;;;;;;;23.10;53.00;;;;;;5073804;28;972;-41
2021/12/30 12:34:39;;;;;;;;;;;23.20;53.00;;;;;;5073422;28;951;-40
2021/12/30 12:37:26;;;;;;;;;;;23.20;53.00;;;;;;5073466;28;1020;-42
2021/12/30 12:39:56;;;;;;;;;;;23.20;52.90;;;;;;5073398;28;2290;-41
2021/12/30 12:42:47;;;;;;;;;;;23.20;53.00;;;;;;5072380;28;1512;-40
2021/12/30 12:45:17;;;;;;;;;;;23.10;52.90;;;;;;5073298;28;1306;-38
2021/12/30 12:47:43;;;;;;;;;;;23.20;53.00;;;;;;5071855;28;1042;-39
2021/12/30 12:50:10;;;;;;;;;;;23.20;52.90;;;;;;5073730;28;1980;-41
2021/12/30 12:52:44;;;;;;;;;;;23.20;52.80;;;;;;5072937;28;976;-41
2021/12/30 12:55:13;;;;;;;;;;;23.20;52.90;;;;;;5072925;28;1177;-40
2021/12/30 12:57:41;;;;;;;;;;;23.20;52.80;;;;;;5072784;28;1527;-40
2021/12/30 13:00:09;;;;;;;;;;;23.30;52.90;;;;;;5073333;28;1470;-40
2021/12/30 13:02:36;;;;;;;;;;;23.30;52.80;;;;;;5073103;28;1015;-37
2021/12/30 13:05:07;;;;;;;;;;;23.20;52.80;;;;;;5073481;28;998;-40
2021/12/30 13:07:34;;;;;;;;;;;23.20;52.90;;;;;;5072761;28;947;-38
2021/12/30 13:10:01;;;;;;;;;;;23.20;53.00;;;;;;5072952;28;1981;-38
2021/12/30 13:12:34;;;;;;;;;;;23.20;52.90;;;;;;5071584;28;1010;-37
2021/12/30 13:15:09;;;;;;;;;;;23.20;52.90;;;;;;5076600;28;1010;-37
2021/12/30 13:17:36;;;;;;;;;;;23.20;52.80;;;;;;5074898;28;975;-38
2021/12/30 13:20:03;;;;;;;;;;;23.20;52.80;;;;;;5077011;28;939;-42
2021/12/30 13:22:31;;;;;;;;;;;23.20;53.00;;;;;;5076842;27;863;-39
2021/12/30 13:24:59;;;;;;;;;;;23.20;53.00;;;;;;5077259;27;937;-39
2021/12/30 13:27:30;;;;;;;;;;;23.20;53.00;;;;;;5076262;27;1042;-38
2021/12/30 13:29:58;;;;;;;;;;;23.10;53.00;;;;;;5076376;28;1969;-44
2021/12/30 13:32:28;;;;;;;;;;;23.10;53.00;;;;;;5076499;28;951;-44
2021/12/30 13:34:57;;;;;;;;;;;23.20;53.00;;;;;;5075522;28;944;-44
2021/12/30 13:37:25;;;;;;;;;;;23.10;53.00;;;;;;5074910;28;962;-44
2021/12/30 13:39:55;;;;;;;;;;;23.10;53.00;;;;;;5076022;27;985;-44
2021/12/30 13:42:22;;;;;;;;;;;23.10;53.10;;;;;;5076925;27;1209;-44
2021/12/30 13:44:50;;;;;;;;;;;23.20;53.00;;;;;;5076727;28;943;-43
2021/12/30 13:47:19;;;;;;;;;;;23.20;53.00;;;;;;5076116;27;1009;-43
2021/12/30 13:49:48;;;;;;;;;;;23.10;53.00;;;;;;5075895;28;1977;-44
2021/12/30 13:52:15;;;;;;;;;;;23.10;53.00;;;;;;5076276;28;1965;-43
2021/12/30 13:54:42;;;;;;;;;;;23.10;53.00;;;;;;5075495;28;1196;-43
2021/12/30 13:57:09;;;;;;;;;;;23.10;53.00;;;;;;5075372;28;1026;-42
2021/12/30 13:59:36;;;;;;;;;;;23.20;53.00;;;;;;5075210;27;1014;-34
2021/12/30 14:02:13;;;;;;;;;;;23.20;53.00;;;;;;5075587;27;1026;-34
2021/12/30 14:04:40;;;;;;;;;;;23.20;53.00;;;;;;5075213;28;1023;-34
2021/12/30 14:07:08;;;;;;;;;;;23.20;52.90;;;;;;5076517;28;1071;-34
2021/12/30 14:09:35;;;;;;;;;;;23.20;53.00;;;;;;5074747;28;1914;-34
2021/12/30 14:12:09;;;;;;;;;;;23.10;53.00;;;;;;5074735;28;2025;-34
2021/12/30 14:14:38;;;;;;;;;;;23.10;53.10;;;;;;5075418;28;980;-33
2021/12/30 14:17:05;;;;;;;;;;;23.10;53.00;;;;;;5076151;27;999;-32
2021/12/30 14:19:32;;;;;;;;;;;23.10;53.10;;;;;;5074540;28;968;-33
2021/12/30 14:22:00;;;;;;;;;;;23.10;53.10;;;;;;5075443;27;918;-33
2021/12/30 14:24:29;;;;;;;;;;;23.10;53.00;;;;;;5074630;28;963;-34
2021/12/30 14:26:57;;;;;;;;;;;23.10;53.10;;;;;;5074006;27;1041;-34
2021/12/30 14:29:27;;;;;;;;;;;23.10;53.00;;;;;;5075325;28;1973;-34
2021/12/30 14:31:56;;;;;;;;;;;23.10;53.10;;;;;;5075226;27;1109;-34
2021/12/30 14:34:24;;;;;;;;;;;23.10;53.00;;;;;;5075285;27;1048;-34
2021/12/30 14:36:55;;;;;;;;;;;23.10;53.00;;;;;;5075576;28;946;-34
2021/12/30 14:39:23;;;;;;;;;;;23.20;53.00;;;;;;5073443;28;1447;-33
2021/12/30 14:41:54;;;;;;;;;;;23.20;53.00;;;;;;5075430;28;1013;-33